Terminal Aerodrome Forecast
Issued by NWS

Home | Current Version | Previous Version | Text Only | Print | Product List | Glossary Off
Versions: 1 2 3 4 5 6 7 8 9 10 11 12 13 14 15 16 17 18 19 20 21 22 23 24

000
FTUS44 KTSA 190200 AAA
TAFBVO
TAF AMD
KBVO 190204Z 1902/1924 01003KT P6SM OVC010
     FM190400 00000KT 6SM BR OVC008
     FM190600 00000KT 1SM BR OVC004
     FM191500 00000KT 4SM BR OVC007
     FM191900 02004KT P6SM OVC012=

USA.gov is the U.S. government's official web portal to all federal, state and local government web resources and services.